KEQA

El Dorado / Captain Jack Thomas Memorial Airport

El Dorado, Kansas, USA
METAR KEQA 152055Z AUTO 23007KT 10SM CLR 15/02 A2995 RMK AO2
Observed Flight Rules
Nov-15 @ 20:55 UTC (26 minutes ago) Visual Flight Rules
Wind Visibility Clouds
230° at 7 knots 10 miles
  • Clear skies
Temperatures Readings
Current 15°C / 59°F
Dewpoint 2°C / 36°F
Humidity 42%
Altimeter 29.95" Hg
Pressure 1014 hPa
Elevation 420
METAR KEQA 152055Z AUTO 23007KT 10SM CLR 15/02 A2995 RMK AO2
Observed Flight Rules
Nov-15 @ 20:55 UTC
(26 minutes ago)
VFR
Wind Visibility
230° at 7 knots 10 miles
Clouds
  • Clear skies
Temperature Dewpoint
15°C / 59°F 2°C / 36°F
Humidity Altimeter Pressure
42% 29.95" Hg 1014 hPa